This is the latest recevied weather packets stored in our database for station/object KQ4HDO. If no packets are shown the sender has not sent any weather packets the latest 10 day(s).
| Time | Temp. | Humidity | Pressure | Rain* | Wind** | Luminosity | Snow |
|---|---|---|---|---|---|---|---|
| 1777767303 | 15° C | 40% | 1017.7 hPa | 0 mm | - | - | - |
| 1777766538 | 15.56° C | 39% | 1017.8 hPa | 0 mm | - | - | - |
| 1777764903 | 15.56° C | 39% | 1017.8 hPa | 0 mm | - | - | - |
| 1777762503 | 15.56° C | 41% | 1018 hPa | 0 mm | - | - | - |
| 1777762203 | 15.56° C | 40% | 1018 hPa | 0 mm | - | - | - |
| 1777761603 | 15.56° C | 40% | 1018 hPa | 0 mm | - | - | - |
| 1777761438 | 15.56° C | 39% | 1018 hPa | 0 mm | - | - | - |
| 1777759503 | 15.56° C | 38% | 1018 hPa | 0 mm | - | - | - |
| 1777758903 | 15.56° C | 38% | 1018 hPa | 0 mm | - | - | - |
| 1777757703 | 15.56° C | 38% | 1018.1 hPa | 0 mm | - | - | - |
| 1777756203 | 16.11° C | 37% | 1018.1 hPa | 0 mm | - | - | - |
| 1777755903 | 16.11° C | 36% | 1018.1 hPa | 0 mm | - | - | - |
| 1777752903 | 15.56° C | 40% | 1018.6 hPa | 0 mm | - | - | - |
| 1777752437 | 16.11° C | 40% | 1018.7 hPa | 0 mm | - | - | - |
| 1777750503 | 15.56° C | 39% | 1018.8 hPa | 0 mm | - | - | - |
| 1777748403 | 15.56° C | 42% | 1018.9 hPa | 0 mm | - | - | - |
| 1777748237 | 14.44° C | 39% | 1018.9 hPa | 0 mm | - | - | - |
| 1777745403 | 14.44° C | 43% | 1019.1 hPa | 0 mm | - | - | - |
| 1777740303 | 13.33° C | 47% | 1019.6 hPa | 0 mm | - | - | - |
| 1777738203 | 13.33° C | 47% | 1019.5 hPa | 0 mm | - | - | - |
| 1777736103 | 13.33° C | 48% | 1019.4 hPa | 0 mm | - | - | - |
| 1777734303 | 13.89° C | 55% | 1019.3 hPa | 0 mm | - | - | - |
| 1777732938 | 12.78° C | 59% | 1019.2 hPa | 0 mm | - | - | - |
| 1777727403 | 9.44° C | 76% | 1018.6 hPa | 0 mm | - | - | - |
| 1777727103 | 9.44° C | 77% | 1018.5 hPa | 0 mm | - | - | - |
* Rain latest hour (hover to see other rain measurements)
** Current wind speed in m/s (hover to see current wind gust speed)